createdAt,value
2018-10-17T00:01:22.764Z,99017.59
2018-10-17T00:03:53.508Z,99011.14
2018-10-17T00:06:24.241Z,99002.41
2018-10-17T00:08:54.982Z,99003.02
2018-10-17T00:11:25.927Z,99007.02
2018-10-17T00:13:56.712Z,99004.77
2018-10-17T00:16:27.473Z,99017.09
2018-10-17T00:18:58.449Z,99015.91
2018-10-17T00:21:29.271Z,99006.61
2018-10-17T00:24:00.105Z,99002.30
2018-10-17T00:26:31.083Z,99006.94
2018-10-17T00:29:02.348Z,99001.91
2018-10-17T00:31:39.624Z,99002.14
2018-10-17T00:34:10.941Z,99001.16
2018-10-17T00:36:42.278Z,99003.45
2018-10-17T00:39:13.073Z,99004.55
2018-10-17T00:41:43.913Z,99003.84
2018-10-17T00:44:14.875Z,99000.98
2018-10-17T00:46:45.646Z,99006.94
2018-10-17T00:49:16.409Z,98997.73
2018-10-17T00:51:47.095Z,98999.42
2018-10-17T00:54:17.883Z,98994.72
2018-10-17T00:56:48.657Z,98998.28
2018-10-17T00:59:19.386Z,99000.39
2018-10-17T01:01:50.150Z,98998.84
2018-10-17T01:04:23.368Z,98994.42
2018-10-17T01:06:54.553Z,98987.76
2018-10-17T01:09:25.210Z,98985.73
2018-10-17T01:11:56.236Z,98991.39
2018-10-17T01:14:27.129Z,98990.64
2018-10-17T01:16:57.797Z,98988.36
2018-10-17T01:19:28.781Z,98991.12
2018-10-17T01:21:59.552Z,98982.16
2018-10-17T01:24:30.342Z,98983.47
2018-10-17T01:27:01.113Z,98985.88
2018-10-17T01:29:32.801Z,98977.05
2018-10-17T01:32:03.513Z,98976.95
2018-10-17T01:34:34.200Z,98978.06
2018-10-17T01:37:05.028Z,98969.81
2018-10-17T01:39:35.824Z,98973.52
2018-10-17T01:42:07.235Z,98964.93
2018-10-17T01:44:37.864Z,98962.30
2018-10-17T01:47:08.652Z,98958.97
2018-10-17T01:49:39.322Z,98954.09
2018-10-17T01:52:10.198Z,98958.44
2018-10-17T01:54:40.924Z,98949.84
2018-10-17T01:57:11.763Z,98956.89
2018-10-17T01:59:42.410Z,98957.50
2018-10-17T02:02:13.132Z,98958.20
2018-10-17T02:04:44.573Z,98947.70
2018-10-17T02:07:15.436Z,98950.36
2018-10-17T02:09:46.915Z,98953.16
2018-10-17T02:12:17.827Z,98949.70
2018-10-17T02:14:49.360Z,98949.02
2018-10-17T02:17:20.416Z,98948.69
2018-10-17T02:19:51.248Z,98940.91
2018-10-17T02:22:22.475Z,98946.29
2018-10-17T02:24:54.291Z,98943.42
2018-10-17T02:27:25.093Z,98942.45
2018-10-17T02:29:56.358Z,98946.59
2018-10-17T02:32:27.260Z,98947.34
2018-10-17T02:35:03.784Z,98946.36
2018-10-17T02:37:34.732Z,98940.91
2018-10-17T02:40:05.802Z,98950.44
2018-10-17T02:42:36.517Z,98944.84
2018-10-17T02:45:08.278Z,98946.49
2018-10-17T02:47:39.150Z,98942.45
2018-10-17T02:50:11.944Z,98942.45
2018-10-17T02:52:43.512Z,98944.61
2018-10-17T02:55:14.565Z,98953.66
2018-10-17T02:57:45.447Z,98949.59
2018-10-17T03:00:16.243Z,98946.09
2018-10-17T03:02:46.929Z,98942.38
2018-10-17T03:05:18.688Z,98936.38
2018-10-17T03:07:49.357Z,98941.40
2018-10-17T03:10:19.963Z,98943.52
2018-10-17T03:12:50.548Z,98935.77
2018-10-17T03:15:21.187Z,98939.11
2018-10-17T03:17:52.023Z,98936.38
2018-10-17T03:20:22.899Z,98934.02
2018-10-17T03:22:53.780Z,98933.66
2018-10-17T03:25:24.459Z,98930.59
2018-10-17T03:27:55.343Z,98930.59
2018-10-17T03:30:26.424Z,98928.13
2018-10-17T03:32:57.416Z,98931.73
2018-10-17T03:35:28.230Z,98928.03
2018-10-17T03:37:59.899Z,98928.53
2018-10-17T03:40:30.673Z,98926.38
2018-10-17T03:43:01.845Z,98930.33
2018-10-17T03:45:32.885Z,98924.36
2018-10-17T03:48:03.603Z,98923.52
2018-10-17T03:50:34.319Z,98930.83
2018-10-17T03:53:05.250Z,98937.73
2018-10-17T03:55:36.168Z,98939.55
2018-10-17T03:58:07.476Z,98940.73
2018-10-17T04:00:38.141Z,98935.47
2018-10-17T04:03:09.029Z,98941.06
2018-10-17T04:05:40.463Z,98939.41
2018-10-17T04:08:11.229Z,98942.52
2018-10-17T04:10:42.255Z,98940.63
2018-10-17T04:13:13.078Z,98937.28
2018-10-17T04:15:50.453Z,98938.36
2018-10-17T04:18:21.221Z,98936.34
2018-10-17T04:20:52.240Z,98928.12
2018-10-17T04:23:23.265Z,98926.33
2018-10-17T04:25:54.413Z,98928.38
2018-10-17T04:28:28.150Z,98923.02
2018-10-17T04:30:59.377Z,98923.48
2018-10-17T04:33:30.495Z,98919.81
2018-10-17T04:36:02.421Z,98924.20
2018-10-17T04:38:34.052Z,98930.66
2018-10-17T04:41:06.319Z,98926.84
2018-10-17T04:43:37.289Z,98928.76
2018-10-17T04:46:08.173Z,98941.28
2018-10-17T04:48:39.011Z,98939.74
2018-10-17T04:51:12.549Z,98936.53
2018-10-17T04:53:43.731Z,98937.97
2018-10-17T04:56:14.643Z,98942.84
2018-10-17T04:58:46.366Z,98942.60
2018-10-17T05:01:17.343Z,98942.13
2018-10-17T05:03:48.597Z,98944.41
2018-10-17T05:06:20.139Z,98949.41
2018-10-17T05:08:51.241Z,98947.25
2018-10-17T05:11:22.392Z,98944.53
2018-10-17T05:13:56.285Z,98950.12
2018-10-17T05:16:27.056Z,98936.17
2018-10-17T05:18:58.071Z,98941.88
2018-10-17T05:21:29.794Z,98944.63
2018-10-17T05:24:00.759Z,98943.08
2018-10-17T05:26:31.993Z,98945.48
2018-10-17T05:29:02.910Z,98942.13
2018-10-17T05:31:33.796Z,98935.44
2018-10-17T05:34:04.635Z,98939.14
2018-10-17T05:36:35.388Z,98938.03
2018-10-17T05:39:08.354Z,98941.87
2018-10-17T05:41:39.321Z,98945.21
2018-10-17T05:44:10.051Z,98947.33
2018-10-17T05:46:40.863Z,98946.99
2018-10-17T05:49:11.639Z,98952.72
2018-10-17T05:51:43.101Z,98943.90
2018-10-17T05:54:14.078Z,98947.20
2018-10-17T05:56:45.638Z,98947.66
2018-10-17T05:59:16.719Z,98949.75
2018-10-17T06:01:47.856Z,98940.30
2018-10-17T06:04:18.654Z,98943.45
2018-10-17T06:06:50.627Z,98943.61
2018-10-17T06:09:22.274Z,98944.64
2018-10-17T06:11:53.647Z,98951.08
2018-10-17T06:14:24.634Z,98952.53
2018-10-17T06:16:55.595Z,98960.38
2018-10-17T06:19:26.420Z,98959.16
2018-10-17T06:21:57.187Z,98959.71
2018-10-17T06:24:28.243Z,98954.77
2018-10-17T06:26:59.211Z,98958.38
2018-10-17T06:29:30.962Z,98952.97
2018-10-17T06:32:02.172Z,98959.41
2018-10-17T06:34:36.382Z,98960.20
2018-10-17T06:37:11.172Z,98956.15
2018-10-17T06:39:42.233Z,98961.50
2018-10-17T06:42:13.555Z,98959.52
2018-10-17T06:44:45.229Z,98960.67
2018-10-17T06:47:16.645Z,98957.30
2018-10-17T06:49:47.816Z,98962.52
2018-10-17T06:52:19.016Z,98962.03
2018-10-17T06:54:50.542Z,98962.96
2018-10-17T06:57:21.918Z,98962.86
2018-10-17T06:59:53.131Z,98959.53
2018-10-17T07:02:23.995Z,98964.50
2018-10-17T07:04:55.200Z,98963.55
2018-10-17T07:07:25.994Z,98966.40
2018-10-17T07:09:56.977Z,98966.86
2018-10-17T07:12:27.721Z,98964.59
2018-10-17T07:14:58.676Z,98972.08
2018-10-17T07:17:29.590Z,98959.82
2018-10-17T07:20:00.533Z,98960.69
2018-10-17T07:22:31.449Z,98967.13
2018-10-17T07:25:02.507Z,98963.47
2018-10-17T07:27:33.679Z,98960.12
2018-10-17T07:30:04.526Z,98961.72
2018-10-17T07:32:35.684Z,98958.94
2018-10-17T07:35:07.473Z,98955.81
2018-10-17T07:37:38.435Z,98957.52
2018-10-17T07:40:09.986Z,98957.59
2018-10-17T07:42:40.973Z,98952.05
2018-10-17T07:45:11.995Z,98957.47
2018-10-17T07:47:43.115Z,98964.66
2018-10-17T07:50:14.186Z,98959.43
2018-10-17T07:52:45.229Z,98959.36
2018-10-17T07:55:16.099Z,98960.23
2018-10-17T07:57:47.205Z,98962.39
2018-10-17T08:00:19.015Z,98959.41
2018-10-17T08:02:49.782Z,98960.77
2018-10-17T08:05:23.005Z,98959.88
2018-10-17T08:07:54.610Z,98955.78
2018-10-17T08:14:01.294Z,98960.25
2018-10-17T08:16:32.137Z,98960.55
2018-10-17T08:19:03.062Z,98958.91
2018-10-17T08:25:11.435Z,98961.78
2018-10-17T08:27:43.669Z,98962.50
2018-10-17T08:30:14.963Z,98963.97
2018-10-17T08:32:46.878Z,98966.89
2018-10-17T08:35:17.947Z,98960.75
2018-10-17T08:37:49.240Z,98961.97
2018-10-17T08:40:19.867Z,98960.84
2018-10-17T08:42:50.880Z,98962.38
2018-10-17T08:45:28.377Z,98958.55
2018-10-17T08:47:59.431Z,98957.76
2018-10-17T08:50:30.375Z,98958.80
2018-10-17T08:53:01.328Z,98959.39
2018-10-17T08:55:32.190Z,98957.02
2018-10-17T08:58:03.086Z,98952.14
2018-10-17T09:00:33.886Z,98947.87
2018-10-17T09:03:04.927Z,98950.61
2018-10-17T09:05:35.769Z,98953.32
2018-10-17T09:08:07.102Z,98951.48
2018-10-17T09:10:38.721Z,98957.35
2018-10-17T09:13:09.594Z,98956.91
2018-10-17T09:15:41.216Z,98950.65
2018-10-17T09:18:12.271Z,98950.34
2018-10-17T09:20:45.099Z,98955.29
2018-10-17T09:23:15.949Z,98952.11
2018-10-17T09:25:47.990Z,98955.29
2018-10-17T09:28:19.151Z,98952.88
2018-10-17T09:30:50.882Z,98959.67
2018-10-17T09:33:22.236Z,98958.55
2018-10-17T09:35:57.655Z,98957.39
2018-10-17T09:38:28.504Z,98960.44
2018-10-17T09:40:59.399Z,98962.28
2018-10-17T09:43:31.012Z,98962.73
2018-10-17T09:46:02.159Z,98956.59
2018-10-17T09:48:33.471Z,98952.32
2018-10-17T09:51:04.235Z,98955.47
2018-10-17T09:53:35.160Z,98954.73
2018-10-17T09:56:06.202Z,98949.84
2018-10-17T09:58:37.421Z,98947.59
2018-10-17T10:02:17.864Z,98943.80
2018-10-17T10:04:48.663Z,98937.33
2018-10-17T10:07:19.898Z,98939.02
2018-10-17T10:09:51.049Z,98936.94
2018-10-17T10:12:22.303Z,98932.79
2018-10-17T10:14:53.432Z,98927.88
2018-10-17T10:17:24.289Z,98926.20
2018-10-17T10:19:55.184Z,98922.09
2018-10-17T10:22:26.040Z,98920.45
2018-10-17T10:24:57.123Z,98915.66
2018-10-17T10:27:28.659Z,98911.71
2018-10-17T10:29:59.445Z,98911.36
2018-10-17T10:32:31.593Z,98911.52
2018-10-17T10:35:04.009Z,98915.52
2018-10-17T10:37:36.251Z,98914.25
2018-10-17T10:40:09.463Z,98909.61
2018-10-17T10:42:41.726Z,98910.23
2018-10-17T10:45:12.786Z,98915.20
2018-10-17T10:47:45.155Z,98910.09
2018-10-17T10:50:16.003Z,98906.76
2018-10-17T10:52:46.801Z,98904.20
2018-10-17T10:55:17.635Z,98903.34
2018-10-17T10:57:48.682Z,98903.00
2018-10-17T11:00:19.976Z,98906.62
2018-10-17T11:02:50.950Z,98907.66
2018-10-17T11:05:22.054Z,98895.08
2018-10-17T11:07:53.391Z,98894.36
2018-10-17T11:10:24.331Z,98887.24
2018-10-17T11:12:55.323Z,98880.34
2018-10-17T11:15:26.517Z,98878.81
2018-10-17T11:17:57.450Z,98879.83
2018-10-17T11:20:28.487Z,98877.81
2018-10-17T11:22:59.533Z,98869.51
2018-10-17T11:25:30.754Z,98876.42
2018-10-17T11:28:02.445Z,98870.56
2018-10-17T11:30:33.701Z,98865.77
2018-10-17T11:33:05.250Z,98868.06
2018-10-17T11:35:36.119Z,98860.27
2018-10-17T11:38:07.178Z,98859.84
2018-10-17T11:40:38.187Z,98858.97
2018-10-17T11:43:09.174Z,98861.50
2018-10-17T11:45:40.173Z,98857.87
2018-10-17T11:48:13.259Z,98856.36
2018-10-17T11:50:44.228Z,98846.47
2018-10-17T11:53:15.213Z,98850.01
2018-10-17T11:55:46.738Z,98849.24
2018-10-17T11:58:18.146Z,98842.80
2018-10-17T12:00:49.342Z,98833.75
2018-10-17T12:03:20.623Z,98838.60
2018-10-17T12:05:53.053Z,98827.81
2018-10-17T12:08:24.112Z,98824.14
2018-10-17T12:10:56.188Z,98816.12
2018-10-17T12:13:27.502Z,98812.10
2018-10-17T12:15:59.019Z,98805.34
2018-10-17T12:18:30.037Z,98802.23
2018-10-17T12:21:01.212Z,98796.31
2018-10-17T12:23:32.391Z,98790.58
2018-10-17T12:26:03.356Z,98792.87
2018-10-17T12:28:34.691Z,98791.33
2018-10-17T12:31:06.216Z,98792.48
2018-10-17T12:33:37.627Z,98786.70
2018-10-17T12:36:08.873Z,98776.61
2018-10-17T12:38:39.850Z,98776.30
2018-10-17T12:41:11.607Z,98772.68
2018-10-17T12:43:43.471Z,98763.95
2018-10-17T12:46:14.642Z,98764.14
2018-10-17T12:48:46.051Z,98763.47
2018-10-17T12:51:17.228Z,98761.92
2018-10-17T12:53:48.544Z,98743.87
2018-10-17T12:56:19.762Z,98747.59
2018-10-17T12:58:52.844Z,98748.93
2018-10-17T13:01:25.039Z,98747.43
2018-10-17T13:03:57.966Z,98747.93
2018-10-17T13:06:29.872Z,98738.26
2018-10-17T13:09:02.366Z,98746.69
2018-10-17T13:11:35.033Z,98749.55
2018-10-17T13:14:07.752Z,98746.03
2018-10-17T13:16:41.082Z,98743.55
2018-10-17T13:19:14.104Z,98744.48
2018-10-17T13:21:47.718Z,98741.00
2018-10-17T13:24:20.437Z,98741.47
2018-10-17T13:26:53.003Z,98743.39
2018-10-17T13:29:25.729Z,98739.27
2018-10-17T13:31:58.531Z,98733.64
2018-10-17T13:34:31.435Z,98732.42
2018-10-17T13:37:06.260Z,98730.45
2018-10-17T13:39:38.387Z,98721.78
2018-10-17T13:42:10.933Z,98716.26
2018-10-17T13:44:42.997Z,98717.56
2018-10-17T13:47:15.615Z,98723.69
2018-10-17T13:49:48.353Z,98727.86
2018-10-17T13:52:20.526Z,98721.52
2018-10-17T13:54:53.344Z,98723.33
2018-10-17T13:57:26.430Z,98720.40
2018-10-17T13:59:59.011Z,98715.56
2018-10-17T14:02:31.461Z,98715.00
2018-10-17T14:05:03.407Z,98716.42
2018-10-17T14:07:36.141Z,98719.25
2018-10-17T14:10:09.221Z,98718.14
2018-10-17T14:12:40.703Z,98715.84
2018-10-17T14:15:12.704Z,98706.34
2018-10-17T14:17:43.733Z,98713.69
2018-10-17T14:20:14.742Z,98713.27
2018-10-17T14:22:45.990Z,98710.33
2018-10-17T14:25:17.239Z,98709.66
2018-10-17T14:27:47.946Z,98703.92
2018-10-17T14:30:18.925Z,98705.27
2018-10-17T14:32:49.754Z,98697.95
2018-10-17T14:35:21.603Z,98693.83
2018-10-17T14:37:52.735Z,98692.93
2018-10-17T14:40:23.654Z,98698.70
2018-10-17T14:42:54.643Z,98697.58
2018-10-17T14:45:26.211Z,98700.26
2018-10-17T14:47:57.445Z,98698.41
2018-10-17T14:50:30.366Z,98696.80
2018-10-17T14:53:01.818Z,98700.16
2018-10-17T14:55:33.023Z,98697.69
2018-10-17T14:58:04.373Z,98687.48
2018-10-17T15:00:37.438Z,98694.23
2018-10-17T15:03:10.676Z,98686.28
2018-10-17T15:05:43.262Z,98682.03
2018-10-17T15:08:16.773Z,98683.66
2018-10-17T15:10:49.751Z,98682.28
2018-10-17T15:13:22.205Z,98681.74
2018-10-17T15:15:55.229Z,98684.47
2018-10-17T15:18:27.676Z,98683.80
2018-10-17T15:20:59.193Z,98683.27
2018-10-17T15:23:30.225Z,98680.96
2018-10-17T15:26:01.630Z,98683.50
2018-10-17T15:28:32.873Z,98683.42
2018-10-17T15:31:04.730Z,98691.26
2018-10-17T15:33:35.720Z,98688.38
2018-10-17T15:36:06.890Z,98683.97
2018-10-17T15:38:38.112Z,98683.83
2018-10-17T15:41:11.213Z,98690.34
2018-10-17T15:43:43.703Z,98679.28
2018-10-17T15:46:15.046Z,98678.42
2018-10-17T15:48:49.478Z,98678.23
2018-10-17T15:51:21.320Z,98675.83
2018-10-17T15:53:54.770Z,98675.45
2018-10-17T15:56:26.664Z,98677.67
2018-10-17T16:02:40.019Z,98675.33
2018-10-17T16:05:20.652Z,98680.31
2018-10-17T16:07:57.009Z,98676.13
2018-10-17T16:14:05.180Z,98686.94
2018-10-17T16:16:40.989Z,98692.88
2018-10-17T16:21:12.101Z,98694.34
2018-10-17T16:23:42.969Z,98695.17
2018-10-17T16:26:14.175Z,98699.89
2018-10-17T16:28:45.118Z,98697.30
2018-10-17T16:31:16.017Z,98690.87
2018-10-17T16:33:47.241Z,98692.38
2018-10-17T16:36:18.058Z,98691.43
2018-10-17T16:38:49.613Z,98702.73
2018-10-17T16:41:21.635Z,98707.73
2018-10-17T16:43:52.734Z,98712.44
2018-10-17T16:46:23.685Z,98710.17
2018-10-17T16:48:54.697Z,98709.75
2018-10-17T16:51:25.427Z,98710.98
2018-10-17T16:53:56.440Z,98709.51
2018-10-17T16:56:27.274Z,98712.06
2018-10-17T16:58:58.283Z,98711.77
2018-10-17T17:01:29.558Z,98712.15
2018-10-17T17:04:01.624Z,98716.47
2018-10-17T17:06:32.868Z,98720.13
2018-10-17T17:09:04.293Z,98718.16
2018-10-17T17:11:35.429Z,98721.17
2018-10-17T17:14:07.238Z,98727.64
2018-10-17T17:16:38.401Z,98729.09
2018-10-17T17:19:09.368Z,98732.09
2018-10-17T17:21:40.438Z,98740.05
2018-10-17T17:24:12.120Z,98730.74
2018-10-17T17:26:43.064Z,98739.70
2018-10-17T17:29:13.837Z,98738.03
2018-10-17T17:31:45.377Z,98731.89
2018-10-17T17:34:16.443Z,98734.22
2018-10-17T17:36:47.353Z,98736.52
2018-10-17T17:39:18.440Z,98746.31
2018-10-17T17:41:49.410Z,98746.80
2018-10-17T17:44:20.376Z,98752.58
2018-10-17T17:46:51.553Z,98754.06
2018-10-17T17:49:22.519Z,98753.05
2018-10-17T17:51:54.157Z,98758.83
2018-10-17T17:54:26.660Z,98756.70
2018-10-17T17:56:57.754Z,98760.98
2018-10-17T17:59:29.175Z,98763.27
2018-10-17T18:02:00.441Z,98767.09
2018-10-17T18:04:31.412Z,98767.05
2018-10-17T18:07:03.185Z,98770.84
2018-10-17T18:09:34.525Z,98775.95
2018-10-17T18:12:06.073Z,98773.95
2018-10-17T18:14:38.218Z,98770.61
2018-10-17T18:17:11.103Z,98770.77
2018-10-17T18:19:42.870Z,98774.69
2018-10-17T18:22:14.296Z,98775.20
2018-10-17T18:24:45.865Z,98778.64
2018-10-17T18:27:17.362Z,98778.81
2018-10-17T18:29:49.853Z,98782.59
2018-10-17T18:32:23.958Z,98788.23
2018-10-17T18:34:56.000Z,98789.39
2018-10-17T18:37:28.261Z,98787.10
2018-10-17T18:40:01.374Z,98790.70
2018-10-17T18:42:38.321Z,98789.84
2018-10-17T18:45:10.436Z,98798.59
2018-10-17T18:47:41.880Z,98797.55
2018-10-17T18:50:17.425Z,98797.20
2018-10-17T18:52:50.826Z,98796.51
2018-10-17T18:55:28.423Z,98793.84
2018-10-17T18:57:59.779Z,98790.52
2018-10-17T19:00:31.168Z,98795.65
2018-10-17T19:03:04.689Z,98793.67
2018-10-17T19:05:36.222Z,98792.19
2018-10-17T19:08:08.671Z,98802.45
2018-10-17T19:10:39.751Z,98801.77
2018-10-17T19:13:11.224Z,98807.84
2018-10-17T19:15:42.560Z,98817.27
2018-10-17T19:18:14.833Z,98825.88
2018-10-17T19:20:46.372Z,98830.14
2018-10-17T19:23:18.807Z,98826.49
2018-10-17T19:25:50.244Z,98823.69
2018-10-17T19:28:21.691Z,98824.69
2018-10-17T19:30:57.813Z,98814.23
2018-10-17T19:33:32.371Z,98817.05
2018-10-17T19:36:05.165Z,98812.56
2018-10-17T19:38:39.916Z,98823.14
2018-10-17T19:41:14.047Z,98822.47
2018-10-17T19:43:47.194Z,98817.50
2018-10-17T19:46:20.623Z,98822.14
2018-10-17T19:48:56.852Z,98830.91
2018-10-17T19:51:28.554Z,98836.05
2018-10-17T19:53:59.619Z,98830.11
2018-10-17T19:56:30.862Z,98835.10
2018-10-17T19:59:02.825Z,98835.56
2018-10-17T20:01:35.178Z,98838.72
2018-10-17T20:04:08.164Z,98844.09
2018-10-17T20:06:39.824Z,98847.11
2018-10-17T20:09:12.591Z,98846.20
2018-10-17T20:11:45.785Z,98842.92
2018-10-17T20:14:17.216Z,98843.63
2018-10-17T20:16:49.500Z,98842.34
2018-10-17T20:19:23.542Z,98846.14
2018-10-17T20:21:54.780Z,98845.34
2018-10-17T20:24:27.481Z,98845.66
2018-10-17T20:26:59.076Z,98845.50
2018-10-17T20:29:30.980Z,98847.31
2018-10-17T20:32:02.729Z,98840.95
2018-10-17T20:34:34.405Z,98849.14
2018-10-17T20:37:06.635Z,98846.12
2018-10-17T20:39:40.814Z,98845.73
2018-10-17T20:42:15.384Z,98845.71
2018-10-17T20:44:48.489Z,98847.33
2018-10-17T20:47:19.749Z,98844.65
2018-10-17T20:49:52.253Z,98836.84
2018-10-17T20:52:24.048Z,98836.02
2018-10-17T20:54:56.271Z,98836.98
2018-10-17T20:57:27.256Z,98841.53
2018-10-17T20:59:59.898Z,98844.47
2018-10-17T21:02:31.982Z,98844.14
2018-10-17T21:05:03.300Z,98842.44
2018-10-17T21:07:34.195Z,98845.88
2018-10-17T21:10:05.780Z,98845.84
2018-10-17T21:12:37.084Z,98848.26
2018-10-17T21:15:09.268Z,98841.09
2018-10-17T21:17:42.247Z,98842.25
2018-10-17T21:20:14.164Z,98840.73
2018-10-17T21:22:45.873Z,98835.22
2018-10-17T21:25:17.984Z,98834.50
2018-10-17T21:27:49.804Z,98831.42
2018-10-17T21:30:22.739Z,98834.47
2018-10-17T21:32:53.652Z,98832.74
2018-10-17T21:35:26.588Z,98831.33
2018-10-17T21:37:57.558Z,98826.29
2018-10-17T21:40:30.247Z,98822.56
2018-10-17T21:43:01.324Z,98828.43
2018-10-17T21:45:32.459Z,98828.30
2018-10-17T21:48:03.598Z,98829.05
2018-10-17T21:50:34.606Z,98830.31
2018-10-17T21:53:05.704Z,98828.59
2018-10-17T21:55:36.766Z,98831.53
2018-10-17T21:58:08.861Z,98830.48
2018-10-17T22:00:40.450Z,98823.20
2018-10-17T22:03:11.368Z,98819.61
2018-10-17T22:05:42.092Z,98817.60
2018-10-17T22:08:12.927Z,98817.88
2018-10-17T22:10:43.868Z,98821.84
2018-10-17T22:13:14.970Z,98813.87
2018-10-17T22:15:45.942Z,98813.81
2018-10-17T22:18:16.653Z,98815.41
2018-10-17T22:20:47.497Z,98806.97
2018-10-17T22:23:18.465Z,98806.02
2018-10-17T22:25:49.523Z,98805.63
2018-10-17T22:28:20.532Z,98805.37
2018-10-17T22:30:51.643Z,98806.48
2018-10-17T22:33:22.879Z,98803.78
2018-10-17T22:35:53.585Z,98801.77
2018-10-17T22:38:24.294Z,98813.28
2018-10-17T22:40:55.165Z,98819.06
2018-10-17T22:43:26.049Z,98818.22
2018-10-17T22:45:57.982Z,98816.91
2018-10-17T22:48:28.765Z,98807.47
2018-10-17T22:50:59.821Z,98810.58
2018-10-17T22:53:31.023Z,98811.84
2018-10-17T22:56:02.069Z,98808.63
2018-10-17T22:58:33.443Z,98806.89
2018-10-17T23:01:04.397Z,98797.84
2018-10-17T23:03:35.852Z,98797.03
2018-10-17T23:06:06.733Z,98802.63
2018-10-17T23:08:37.752Z,98801.31
2018-10-17T23:11:08.933Z,98797.03
2018-10-17T23:13:39.889Z,98804.59
2018-10-17T23:16:10.977Z,98801.20
2018-10-17T23:18:43.966Z,98798.51
2018-10-17T23:21:15.151Z,98806.36
2018-10-17T23:23:52.780Z,98800.82
2018-10-17T23:26:23.693Z,98805.81
2018-10-17T23:28:55.021Z,98809.38
2018-10-17T23:31:25.903Z,98805.23
2018-10-17T23:33:56.506Z,98799.28
2018-10-17T23:36:27.014Z,98799.73
2018-10-17T23:38:57.720Z,98800.83
2018-10-17T23:41:28.504Z,98810.38
2018-10-17T23:43:59.445Z,98810.27
2018-10-17T23:46:30.179Z,98811.91
2018-10-17T23:49:01.109Z,98808.66
2018-10-17T23:51:31.820Z,98809.75
2018-10-17T23:54:02.811Z,98806.79
2018-10-17T23:56:33.721Z,98804.48
2018-10-17T23:59:05.080Z,98801.85
